createdAt,value
2019-03-19T00:00:39.500Z,0.00
2019-03-19T00:01:39.364Z,0.00
2019-03-19T00:02:39.230Z,0.00
2019-03-19T00:03:39.097Z,0.00
2019-03-19T00:04:38.961Z,0.00
2019-03-19T00:05:38.827Z,0.00
2019-03-19T00:06:38.694Z,0.00
2019-03-19T00:07:38.560Z,0.00
2019-03-19T00:08:38.423Z,0.00
2019-03-19T00:09:38.318Z,0.00
2019-03-19T00:10:38.155Z,0.00
2019-03-19T00:11:38.024Z,0.00
2019-03-19T00:12:37.885Z,0.00
2019-03-19T00:13:37.753Z,0.00
2019-03-19T00:14:37.617Z,0.00
2019-03-19T00:15:37.483Z,0.00
2019-03-19T00:16:37.346Z,0.00
2019-03-19T00:17:37.215Z,0.00
2019-03-19T00:18:37.078Z,0.00
2019-03-19T00:19:36.945Z,0.00
2019-03-19T00:20:36.812Z,0.00
2019-03-19T00:21:36.676Z,0.00
2019-03-19T00:22:36.540Z,0.00
2019-03-19T00:23:36.409Z,0.00
2019-03-19T00:24:36.271Z,0.00
2019-03-19T00:25:36.138Z,0.00
2019-03-19T00:26:36.003Z,0.00
2019-03-19T00:27:35.880Z,0.00
2019-03-19T00:28:35.736Z,0.00
2019-03-19T00:29:35.600Z,0.00
2019-03-19T00:30:35.470Z,0.00
2019-03-19T00:31:35.333Z,0.00
2019-03-19T00:32:35.198Z,0.00
2019-03-19T00:33:35.060Z,0.00
2019-03-19T00:34:34.929Z,0.00
2019-03-19T00:35:34.794Z,0.00
2019-03-19T00:36:34.656Z,0.00
2019-03-19T00:37:34.527Z,0.00
2019-03-19T00:38:34.389Z,0.00
2019-03-19T00:39:34.257Z,0.00
2019-03-19T00:40:34.132Z,0.00
2019-03-19T00:41:33.985Z,0.00
2019-03-19T00:42:33.850Z,0.00
2019-03-19T00:43:33.728Z,0.00
2019-03-19T00:44:33.580Z,0.00
2019-03-19T00:45:33.469Z,0.00
2019-03-19T00:46:33.310Z,0.00
2019-03-19T00:47:33.175Z,0.00
2019-03-19T00:48:33.039Z,0.00
2019-03-19T00:49:32.904Z,0.00
2019-03-19T00:50:32.771Z,0.00
2019-03-19T00:51:32.635Z,0.00
2019-03-19T00:52:32.501Z,0.00
2019-03-19T00:53:32.365Z,0.00
2019-03-19T00:54:32.232Z,0.00
2019-03-19T00:55:40.310Z,0.00
2019-03-19T00:56:31.961Z,0.00
2019-03-19T00:57:31.828Z,0.00
2019-03-19T00:58:31.694Z,0.00
2019-03-19T00:59:31.554Z,0.00
2019-03-19T01:00:31.423Z,0.00
2019-03-19T01:01:31.288Z,0.00
2019-03-19T01:02:31.169Z,0.00
2019-03-19T01:03:31.018Z,0.00
2019-03-19T01:04:30.880Z,0.00
2019-03-19T01:05:30.804Z,0.00
2019-03-19T01:06:30.624Z,0.00
2019-03-19T01:07:30.476Z,0.00
2019-03-19T01:08:30.341Z,0.00
2019-03-19T01:09:30.208Z,0.00
2019-03-19T01:10:30.076Z,0.00
2019-03-19T01:11:29.938Z,0.00
2019-03-19T01:12:29.803Z,0.00
2019-03-19T01:13:29.669Z,0.00
2019-03-19T01:14:29.534Z,0.00
2019-03-19T01:15:29.398Z,0.00
2019-03-19T01:16:29.261Z,0.00
2019-03-19T01:17:29.132Z,0.00
2019-03-19T01:18:28.993Z,0.00
2019-03-19T01:19:28.861Z,0.00
2019-03-19T01:20:28.723Z,0.00
2019-03-19T01:21:28.589Z,0.00
2019-03-19T01:22:28.455Z,0.00
2019-03-19T01:23:28.317Z,0.00
2019-03-19T01:24:28.188Z,0.00
2019-03-19T01:25:28.318Z,0.00
2019-03-19T01:26:27.915Z,0.00
2019-03-19T01:27:27.778Z,0.00
2019-03-19T01:28:27.643Z,0.00
2019-03-19T01:29:27.507Z,0.00
2019-03-19T01:30:27.375Z,0.00
2019-03-19T01:31:27.238Z,0.00
2019-03-19T01:32:27.110Z,0.00
2019-03-19T01:33:26.969Z,0.00
2019-03-19T01:34:26.834Z,0.00
2019-03-19T01:35:26.699Z,0.00
2019-03-19T01:36:26.563Z,0.00
2019-03-19T01:37:26.430Z,0.00
2019-03-19T01:38:26.293Z,0.00
2019-03-19T01:39:26.158Z,0.00
2019-03-19T01:40:26.026Z,0.00
2019-03-19T01:41:25.891Z,0.00
2019-03-19T01:42:25.763Z,0.00
2019-03-19T01:43:25.620Z,0.00
2019-03-19T01:44:25.485Z,0.00
2019-03-19T01:45:25.351Z,0.00
2019-03-19T01:46:25.213Z,0.00
2019-03-19T01:47:25.078Z,0.00
2019-03-19T01:48:25.002Z,0.00
2019-03-19T01:49:24.809Z,0.00
2019-03-19T01:50:24.674Z,0.00
2019-03-19T01:51:24.540Z,0.00
2019-03-19T01:52:24.402Z,0.00
2019-03-19T01:53:24.267Z,0.00
2019-03-19T01:54:24.137Z,0.00
2019-03-19T01:55:25.626Z,0.00
2019-03-19T01:56:23.870Z,0.00
2019-03-19T01:57:23.727Z,0.00
2019-03-19T01:58:23.594Z,0.00
2019-03-19T01:59:23.457Z,0.00
2019-03-19T02:00:23.323Z,0.00
2019-03-19T02:01:23.202Z,0.00
2019-03-19T02:02:23.054Z,0.00
2019-03-19T02:03:22.921Z,0.00
2019-03-19T02:04:22.788Z,0.00
2019-03-19T02:05:22.648Z,0.00
2019-03-19T02:06:22.520Z,0.00
2019-03-19T02:07:22.378Z,0.00
2019-03-19T02:08:22.242Z,0.00
2019-03-19T02:09:22.110Z,0.00
2019-03-19T02:10:21.976Z,0.00
2019-03-19T02:11:21.850Z,0.00
2019-03-19T02:12:21.704Z,0.00
2019-03-19T02:13:21.573Z,0.00
2019-03-19T02:14:21.434Z,0.00
2019-03-19T02:15:21.297Z,0.00
2019-03-19T02:16:21.162Z,0.00
2019-03-19T02:17:21.032Z,0.00
2019-03-19T02:18:20.892Z,0.00
2019-03-19T02:19:20.763Z,0.00
2019-03-19T02:20:20.622Z,0.00
2019-03-19T02:21:20.489Z,0.00
2019-03-19T02:22:20.356Z,0.00
2019-03-19T02:23:20.268Z,0.00
2019-03-19T02:24:20.080Z,0.00
2019-03-19T02:25:19.945Z,0.00
2019-03-19T02:26:19.809Z,0.00
2019-03-19T02:27:19.675Z,0.00
2019-03-19T02:28:19.538Z,0.00
2019-03-19T02:29:19.404Z,0.00
2019-03-19T02:30:19.284Z,0.00
2019-03-19T02:31:19.138Z,0.00
2019-03-19T02:32:19.006Z,0.00
2019-03-19T02:33:18.875Z,0.00
2019-03-19T02:34:18.730Z,0.00
2019-03-19T02:35:18.591Z,0.00
2019-03-19T02:36:18.457Z,0.00
2019-03-19T02:37:18.322Z,0.00
2019-03-19T02:38:18.186Z,0.00
2019-03-19T02:39:18.051Z,0.00
2019-03-19T02:40:17.938Z,0.00
2019-03-19T02:41:17.780Z,0.00
2019-03-19T02:42:17.644Z,0.00
2019-03-19T02:43:17.519Z,0.00
2019-03-19T02:44:17.369Z,0.00
2019-03-19T02:45:17.233Z,0.00
2019-03-19T02:46:17.100Z,0.00
2019-03-19T02:47:16.971Z,0.00
2019-03-19T02:48:16.829Z,0.00
2019-03-19T02:49:16.690Z,0.00
2019-03-19T02:50:16.558Z,0.00
2019-03-19T02:51:16.415Z,0.00
2019-03-19T02:52:16.279Z,0.00
2019-03-19T02:53:16.147Z,0.00
2019-03-19T02:54:16.019Z,0.00
2019-03-19T02:55:15.888Z,0.00
2019-03-19T02:56:31.393Z,0.00
2019-03-19T02:57:15.601Z,0.00
2019-03-19T02:58:15.464Z,0.00
2019-03-19T02:59:15.330Z,0.00
2019-03-19T03:00:15.199Z,0.00
2019-03-19T03:01:15.054Z,0.00
2019-03-19T03:02:14.921Z,0.00
2019-03-19T03:03:14.784Z,0.00
2019-03-19T03:04:14.646Z,0.00
2019-03-19T03:05:14.510Z,0.00
2019-03-19T03:06:14.376Z,0.00
2019-03-19T03:07:14.241Z,0.00
2019-03-19T03:08:14.103Z,0.00
2019-03-19T03:09:13.974Z,0.00
2019-03-19T03:10:13.839Z,0.00
2019-03-19T03:11:13.701Z,0.00
2019-03-19T03:12:13.560Z,0.00
2019-03-19T03:13:13.422Z,0.00
2019-03-19T03:14:13.287Z,0.00
2019-03-19T03:15:13.162Z,0.00
2019-03-19T03:16:13.013Z,0.00
2019-03-19T03:17:12.877Z,0.00
2019-03-19T03:18:12.744Z,0.00
2019-03-19T03:19:12.606Z,0.00
2019-03-19T03:20:12.470Z,0.00
2019-03-19T03:21:12.333Z,0.00
2019-03-19T03:22:12.196Z,0.00
2019-03-19T03:23:12.059Z,0.00
2019-03-19T03:24:11.925Z,0.00
2019-03-19T03:25:11.789Z,0.00
2019-03-19T03:26:11.658Z,0.00
2019-03-19T03:27:11.577Z,0.00
2019-03-19T03:28:11.385Z,0.00
2019-03-19T03:29:11.353Z,0.00
2019-03-19T03:30:11.107Z,0.00
2019-03-19T03:31:10.998Z,0.00
2019-03-19T03:32:10.836Z,0.00
2019-03-19T03:33:10.719Z,0.00
2019-03-19T03:34:10.574Z,0.00
2019-03-19T03:35:10.436Z,0.00
2019-03-19T03:36:10.351Z,0.00
2019-03-19T03:37:10.154Z,0.00
2019-03-19T03:38:10.018Z,0.00
2019-03-19T03:39:09.892Z,0.00
2019-03-19T03:40:09.750Z,0.00
2019-03-19T03:41:09.607Z,0.00
2019-03-19T03:42:09.474Z,0.00
2019-03-19T03:43:09.353Z,0.00
2019-03-19T03:44:09.203Z,0.00
2019-03-19T03:45:09.075Z,0.00
2019-03-19T03:46:08.931Z,0.00
2019-03-19T03:47:08.795Z,0.00
2019-03-19T03:48:08.656Z,0.00
2019-03-19T03:49:08.525Z,0.00
2019-03-19T03:50:08.382Z,0.00
2019-03-19T03:51:08.248Z,0.00
2019-03-19T03:52:08.111Z,0.00
2019-03-19T03:53:07.979Z,0.00
2019-03-19T03:54:07.841Z,0.00
2019-03-19T03:55:07.715Z,0.00
2019-03-19T03:56:07.566Z,0.00
2019-03-19T03:57:07.429Z,0.00
2019-03-19T03:58:07.295Z,0.00
2019-03-19T03:59:07.163Z,0.00
2019-03-19T04:00:07.024Z,0.00
2019-03-19T04:01:06.885Z,0.00
2019-03-19T04:02:06.751Z,0.00
2019-03-19T04:03:06.615Z,0.00
2019-03-19T04:04:06.477Z,0.00
2019-03-19T04:05:06.338Z,0.00
2019-03-19T04:06:06.208Z,0.00
2019-03-19T04:07:06.071Z,0.00
2019-03-19T04:08:05.975Z,0.00
2019-03-19T04:09:09.105Z,0.00
2019-03-19T04:10:05.661Z,0.00
2019-03-19T04:11:05.530Z,0.00
2019-03-19T04:12:05.385Z,0.00
2019-03-19T04:13:05.261Z,0.00
2019-03-19T04:14:05.122Z,0.00
2019-03-19T04:15:05.001Z,0.00
2019-03-19T04:16:04.849Z,0.00
2019-03-19T04:17:04.706Z,0.00
2019-03-19T04:18:04.573Z,0.00
2019-03-19T04:19:04.430Z,0.00
2019-03-19T04:20:04.312Z,0.00
2019-03-19T04:21:04.157Z,0.00
2019-03-19T04:22:04.025Z,0.00
2019-03-19T04:23:03.893Z,0.00
2019-03-19T04:24:03.749Z,0.00
2019-03-19T04:25:03.618Z,0.00
2019-03-19T04:26:03.479Z,0.00
2019-03-19T04:27:15.288Z,0.00
2019-03-19T04:28:03.205Z,0.00
2019-03-19T04:29:03.066Z,0.00
2019-03-19T04:30:02.932Z,0.00
2019-03-19T04:31:02.803Z,0.00
2019-03-19T04:32:02.655Z,0.00
2019-03-19T04:33:02.543Z,0.00
2019-03-19T04:34:02.381Z,0.00
2019-03-19T04:35:02.249Z,0.00
2019-03-19T04:36:02.108Z,0.00
2019-03-19T04:37:01.976Z,0.00
2019-03-19T04:38:01.837Z,0.00
2019-03-19T04:39:01.712Z,0.00
2019-03-19T04:40:01.564Z,0.00
2019-03-19T04:41:01.426Z,0.00
2019-03-19T04:42:01.294Z,0.00
2019-03-19T04:43:01.154Z,0.00
2019-03-19T04:44:01.017Z,0.00
2019-03-19T04:45:00.880Z,0.00
2019-03-19T04:46:00.748Z,0.00
2019-03-19T04:47:00.611Z,0.00
2019-03-19T04:48:00.478Z,0.00
2019-03-19T04:49:00.338Z,0.00
2019-03-19T04:50:00.340Z,0.00
2019-03-19T04:51:00.063Z,0.00
2019-03-19T04:51:59.930Z,0.00
2019-03-19T04:52:59.804Z,0.00
2019-03-19T04:53:59.657Z,0.00
2019-03-19T04:54:59.518Z,0.00
2019-03-19T04:55:59.382Z,0.00
2019-03-19T04:56:59.246Z,0.00
2019-03-19T04:57:59.108Z,0.00
2019-03-19T04:58:58.973Z,0.00
2019-03-19T04:59:59.134Z,0.00
2019-03-19T05:00:58.698Z,0.00
2019-03-19T05:01:58.617Z,0.00
2019-03-19T05:02:58.429Z,0.00
2019-03-19T05:03:58.290Z,0.00
2019-03-19T05:04:58.154Z,0.00
2019-03-19T05:05:59.627Z,0.00
2019-03-19T05:06:57.881Z,4.00
2019-03-19T05:07:57.745Z,4.00
2019-03-19T05:08:57.609Z,4.00
2019-03-19T05:09:57.473Z,4.00
2019-03-19T05:10:57.335Z,4.00
2019-03-19T05:11:57.237Z,8.00
2019-03-19T05:12:57.066Z,8.00
2019-03-19T05:13:56.932Z,8.00
2019-03-19T05:14:56.789Z,12.00
2019-03-19T05:15:56.653Z,12.00
2019-03-19T05:16:56.532Z,16.00
2019-03-19T05:17:56.390Z,16.00
2019-03-19T05:18:56.251Z,16.00
2019-03-19T05:19:56.106Z,20.00
2019-03-19T05:20:55.968Z,24.00
2019-03-19T05:21:55.834Z,24.00
2019-03-19T05:22:55.699Z,28.00
2019-03-19T05:23:55.561Z,32.00
2019-03-19T05:24:55.423Z,40.00
2019-03-19T05:25:55.289Z,48.00
2019-03-19T05:26:55.155Z,52.00
2019-03-19T05:27:55.016Z,60.00
2019-03-19T05:28:54.879Z,64.00
2019-03-19T05:29:54.742Z,76.00
2019-03-19T05:30:54.606Z,80.00
2019-03-19T05:31:54.470Z,88.00
2019-03-19T05:32:54.335Z,96.00
2019-03-19T05:33:54.200Z,108.00
2019-03-19T05:34:54.067Z,120.00
2019-03-19T05:35:53.930Z,128.00
2019-03-19T05:36:53.789Z,136.00
2019-03-19T05:37:53.655Z,152.00
2019-03-19T05:38:53.517Z,168.00
2019-03-19T05:39:53.385Z,180.00
2019-03-19T05:40:53.244Z,192.00
2019-03-19T05:41:53.117Z,204.00
2019-03-19T05:42:52.972Z,212.00
2019-03-19T05:43:52.837Z,224.00
2019-03-19T05:44:52.702Z,232.00
2019-03-19T05:45:52.565Z,248.00
2019-03-19T05:46:52.430Z,256.00
2019-03-19T05:47:52.288Z,264.00
2019-03-19T05:48:52.155Z,264.00
2019-03-19T05:49:52.017Z,276.00
2019-03-19T05:50:51.882Z,280.00
2019-03-19T05:51:51.745Z,292.00
2019-03-19T05:52:51.608Z,300.00
2019-03-19T05:53:51.471Z,308.00
2019-03-19T05:54:51.333Z,320.00
2019-03-19T05:55:51.201Z,328.00
2019-03-19T05:56:51.061Z,336.00
2019-03-19T05:57:50.923Z,344.00
2019-03-19T05:58:50.791Z,348.00
2019-03-19T05:59:50.651Z,352.00
2019-03-19T06:00:50.521Z,364.00
2019-03-19T06:01:50.382Z,368.00
2019-03-19T06:02:50.244Z,376.00
2019-03-19T06:03:50.105Z,380.00
2019-03-19T06:04:49.969Z,388.00
2019-03-19T06:05:49.835Z,392.00
2019-03-19T06:06:49.695Z,400.00
2019-03-19T06:07:49.559Z,404.00
2019-03-19T06:08:49.425Z,416.00
2019-03-19T06:09:49.286Z,420.00
2019-03-19T06:10:49.152Z,424.00
2019-03-19T06:11:49.014Z,432.00
2019-03-19T06:12:48.882Z,440.00
2019-03-19T06:13:48.742Z,444.00
2019-03-19T06:14:48.604Z,452.00
2019-03-19T06:15:48.467Z,460.00
2019-03-19T06:16:48.333Z,464.00
2019-03-19T06:17:48.197Z,468.00
2019-03-19T06:18:48.059Z,476.00
2019-03-19T06:19:47.936Z,480.00
2019-03-19T06:20:47.786Z,488.00
2019-03-19T06:21:47.650Z,496.00
2019-03-19T06:22:47.514Z,516.00
2019-03-19T06:23:47.376Z,536.00
2019-03-19T06:24:47.244Z,544.00
2019-03-19T06:25:47.103Z,544.00
2019-03-19T06:26:46.977Z,552.00
2019-03-19T06:27:46.835Z,552.00
2019-03-19T06:28:46.695Z,548.00
2019-03-19T06:29:46.562Z,560.00
2019-03-19T06:30:46.425Z,564.00
2019-03-19T06:31:46.287Z,568.00
2019-03-19T06:32:46.163Z,584.00
2019-03-19T06:33:48.114Z,588.00
2019-03-19T06:34:45.881Z,592.00
2019-03-19T06:35:45.756Z,600.00
2019-03-19T06:36:45.610Z,604.00
2019-03-19T06:37:45.473Z,600.00
2019-03-19T06:38:45.338Z,616.00
2019-03-19T06:39:45.200Z,624.00
2019-03-19T06:40:45.066Z,640.00
2019-03-19T06:41:44.930Z,668.00
2019-03-19T06:42:44.796Z,724.00
2019-03-19T06:43:44.654Z,788.00
2019-03-19T06:44:44.519Z,772.00
2019-03-19T06:45:44.384Z,1020.00
2019-03-19T06:46:44.249Z,1124.00
2019-03-19T06:47:44.113Z,776.00
2019-03-19T06:48:43.977Z,852.00
2019-03-19T06:49:43.841Z,920.00
2019-03-19T06:50:45.514Z,1028.00
2019-03-19T06:51:43.570Z,852.00
2019-03-19T06:52:43.442Z,732.00
2019-03-19T06:53:43.299Z,728.00
2019-03-19T06:54:43.221Z,728.00
2019-03-19T06:55:43.028Z,720.00
2019-03-19T06:56:42.891Z,716.00
2019-03-19T06:57:42.756Z,732.00
2019-03-19T06:58:42.619Z,744.00
2019-03-19T06:59:42.485Z,744.00
2019-03-19T07:00:42.353Z,784.00
2019-03-19T07:01:42.215Z,920.00
2019-03-19T07:02:42.078Z,976.00
2019-03-19T07:03:41.940Z,928.00
2019-03-19T07:04:41.804Z,904.00
2019-03-19T07:05:41.671Z,864.00
2019-03-19T07:06:41.536Z,844.00
2019-03-19T07:07:41.404Z,856.00
2019-03-19T07:08:41.266Z,864.00
2019-03-19T07:09:41.128Z,852.00
2019-03-19T07:10:40.998Z,836.00
2019-03-19T07:11:40.861Z,812.00
2019-03-19T07:12:40.722Z,808.00
2019-03-19T07:13:40.588Z,796.00
2019-03-19T07:14:40.454Z,784.00
2019-03-19T07:15:40.318Z,780.00
2019-03-19T07:16:40.183Z,784.00
2019-03-19T07:17:40.046Z,800.00
2019-03-19T07:18:39.913Z,800.00
2019-03-19T07:19:39.775Z,828.00
2019-03-19T07:20:39.641Z,892.00
2019-03-19T07:21:39.509Z,904.00
2019-03-19T07:22:39.371Z,920.00
2019-03-19T07:23:39.244Z,908.00
2019-03-19T07:24:39.100Z,1648.00
2019-03-19T07:25:38.965Z,1820.00
2019-03-19T07:26:38.829Z,1832.00
2019-03-19T07:27:38.706Z,1812.00
2019-03-19T07:28:38.561Z,1308.00
2019-03-19T07:29:38.424Z,1348.00
2019-03-19T07:30:40.729Z,1820.00
2019-03-19T07:31:38.155Z,1484.00
2019-03-19T07:32:38.020Z,1344.00
2019-03-19T07:33:37.886Z,996.00
2019-03-19T07:34:37.751Z,1108.00
2019-03-19T07:35:37.616Z,996.00
2019-03-19T07:36:37.483Z,1080.00
2019-03-19T07:37:37.348Z,1512.00
2019-03-19T07:38:37.213Z,1404.00
2019-03-19T07:39:37.103Z,1952.00
2019-03-19T07:40:36.943Z,1564.00
2019-03-19T07:41:36.810Z,1732.00
2019-03-19T07:42:36.675Z,1840.00
2019-03-19T07:43:36.539Z,1572.00
2019-03-19T07:44:36.409Z,1500.00
2019-03-19T07:45:36.269Z,1068.00
2019-03-19T07:46:36.136Z,1076.00
2019-03-19T07:47:36.005Z,1104.00
2019-03-19T07:48:35.868Z,1104.00
2019-03-19T07:49:35.764Z,1104.00
2019-03-19T07:50:43.581Z,1124.00
2019-03-19T07:52:28.249Z,1504.00
2019-03-19T07:53:28.105Z,1636.00
2019-03-19T07:55:20.817Z,1700.00
2019-03-19T07:56:20.679Z,1756.00
2019-03-19T07:58:13.326Z,1900.00
2019-03-19T07:59:13.181Z,2004.00
2019-03-19T08:01:05.827Z,2604.00
2019-03-19T08:02:05.684Z,3100.00
2019-03-19T08:03:58.324Z,3444.00
2019-03-19T08:04:58.186Z,3600.00
2019-03-19T08:06:50.825Z,3956.00
2019-03-19T08:07:50.686Z,3780.00
2019-03-19T08:09:43.328Z,3344.00
2019-03-19T08:10:43.188Z,3172.00
2019-03-19T08:12:35.841Z,3528.00
2019-03-19T08:13:35.700Z,3484.00
2019-03-19T08:15:28.345Z,3476.00
2019-03-19T08:16:28.205Z,3612.00
2019-03-19T08:18:20.851Z,3580.00
2019-03-19T08:19:20.713Z,3544.00
2019-03-19T08:21:13.381Z,3372.00
2019-03-19T08:22:13.239Z,3212.00
2019-03-19T08:24:05.925Z,2952.00
2019-03-19T08:25:05.747Z,2848.00
2019-03-19T08:26:58.395Z,2384.00
2019-03-19T08:27:58.255Z,2348.00
2019-03-19T08:29:50.903Z,1652.00
2019-03-19T08:30:50.767Z,1612.00
2019-03-19T08:32:43.424Z,1780.00
2019-03-19T08:33:43.286Z,1564.00
2019-03-19T08:35:37.942Z,2180.00
2019-03-19T08:36:35.799Z,2024.00
2019-03-19T08:38:28.454Z,2208.00
2019-03-19T08:39:28.316Z,2620.00
2019-03-19T08:41:20.961Z,3976.00
2019-03-19T08:42:20.825Z,4032.00
2019-03-19T08:44:13.466Z,2188.00
2019-03-19T08:45:13.333Z,2196.00
2019-03-19T08:47:06.024Z,3556.00
2019-03-19T08:48:05.886Z,2896.00
2019-03-19T08:49:58.537Z,3164.00
2019-03-19T08:50:58.398Z,2504.00
2019-03-19T08:52:51.059Z,3260.00
2019-03-19T08:53:50.914Z,3416.00
2019-03-19T08:55:43.601Z,4096.00
2019-03-19T08:56:43.430Z,3868.00
2019-03-19T08:58:36.083Z,4612.00
2019-03-19T08:59:35.935Z,4732.00
2019-03-19T09:01:28.614Z,3904.00
2019-03-19T09:02:28.445Z,4064.00
2019-03-19T09:04:21.130Z,5476.00
2019-03-19T09:05:20.954Z,4924.00
2019-03-19T09:07:13.600Z,4832.00
2019-03-19T09:08:13.468Z,4972.00
2019-03-19T09:10:08.103Z,5584.00
2019-03-19T09:11:07.965Z,5736.00
2019-03-19T09:12:07.835Z,5856.00
2019-03-19T09:13:07.705Z,5956.00
2019-03-19T09:14:07.574Z,5748.00
2019-03-19T09:15:07.444Z,5532.00
2019-03-19T09:16:07.313Z,4384.00
2019-03-19T09:17:07.187Z,4400.00
2019-03-19T09:18:07.055Z,4528.00
2019-03-19T09:19:06.930Z,4648.00
2019-03-19T09:20:06.794Z,4936.00
2019-03-19T09:21:06.667Z,4892.00
2019-03-19T09:22:06.535Z,4788.00
2019-03-19T09:23:06.404Z,4700.00
2019-03-19T09:24:06.278Z,4676.00
2019-03-19T09:25:06.143Z,4748.00
2019-03-19T09:26:06.015Z,4972.00
2019-03-19T09:27:06.032Z,4872.00
2019-03-19T09:28:05.753Z,4732.00
2019-03-19T09:29:16.081Z,4588.00
2019-03-19T09:30:05.493Z,4560.00
2019-03-19T09:31:05.359Z,4596.00
2019-03-19T09:32:05.226Z,4712.00
2019-03-19T09:33:05.097Z,4808.00
2019-03-19T09:34:04.971Z,4876.00
2019-03-19T09:35:04.833Z,4768.00
2019-03-19T09:36:04.704Z,4736.00
2019-03-19T09:37:04.571Z,4616.00
2019-03-19T09:38:04.441Z,4584.00
2019-03-19T09:39:04.309Z,4464.00
2019-03-19T09:40:04.179Z,4492.00
2019-03-19T09:41:04.044Z,4460.00
2019-03-19T09:42:03.912Z,4468.00
2019-03-19T09:43:03.779Z,4452.00
2019-03-19T09:44:03.656Z,4348.00
2019-03-19T09:45:03.516Z,4268.00
2019-03-19T09:46:03.384Z,4232.00
2019-03-19T09:47:03.256Z,4252.00
2019-03-19T09:48:03.121Z,4300.00
2019-03-19T09:49:02.986Z,4440.00
2019-03-19T09:50:02.852Z,4584.00
2019-03-19T09:51:02.720Z,4508.00
2019-03-19T09:52:02.588Z,4588.00
2019-03-19T09:53:02.457Z,4524.00
2019-03-19T09:54:02.323Z,4444.00
2019-03-19T09:55:02.195Z,4264.00
2019-03-19T09:56:02.056Z,4148.00
2019-03-19T09:57:01.925Z,4188.00
2019-03-19T09:58:01.792Z,4268.00
2019-03-19T09:59:01.662Z,4324.00
2019-03-19T10:00:01.529Z,4400.00
2019-03-19T10:01:01.396Z,4520.00
2019-03-19T10:02:01.264Z,4680.00
2019-03-19T10:03:01.131Z,4820.00
2019-03-19T10:04:00.995Z,5088.00
2019-03-19T10:05:00.869Z,5264.00
2019-03-19T10:06:13.370Z,5244.00
2019-03-19T10:07:05.988Z,5624.00
2019-03-19T10:08:00.467Z,5288.00
2019-03-19T10:09:00.333Z,5348.00
2019-03-19T10:10:00.203Z,5576.00
2019-03-19T10:11:00.069Z,5860.00
2019-03-19T10:11:59.938Z,6152.00
2019-03-19T10:12:59.808Z,6348.00
2019-03-19T10:13:59.673Z,6332.00
2019-03-19T10:14:59.542Z,6976.00
2019-03-19T10:15:59.412Z,7112.00
2019-03-19T10:16:59.277Z,7460.00
2019-03-19T10:17:59.144Z,7516.00
2019-03-19T10:18:59.017Z,6884.00
2019-03-19T10:19:58.883Z,6752.00
2019-03-19T10:20:58.754Z,7328.00
2019-03-19T10:21:58.623Z,7028.00
2019-03-19T10:22:58.488Z,6988.00
2019-03-19T10:23:58.361Z,6800.00
2019-03-19T10:24:58.226Z,6396.00
2019-03-19T10:25:58.095Z,6268.00
2019-03-19T10:26:57.963Z,6272.00
2019-03-19T10:27:57.833Z,6232.00
2019-03-19T10:28:57.704Z,6288.00
2019-03-19T10:29:57.568Z,6340.00
2019-03-19T10:30:57.438Z,6512.00
2019-03-19T10:31:57.306Z,6640.00
2019-03-19T10:32:57.189Z,8148.00
2019-03-19T10:33:57.046Z,7556.00
2019-03-19T10:34:56.922Z,7832.00
2019-03-19T10:35:56.784Z,8020.00
2019-03-19T10:36:56.651Z,8096.00
2019-03-19T10:37:56.519Z,7672.00
2019-03-19T10:38:56.393Z,7376.00
2019-03-19T10:39:56.260Z,7296.00
2019-03-19T10:40:56.126Z,7008.00
2019-03-19T10:41:55.997Z,6840.00
2019-03-19T10:42:55.886Z,7268.00
2019-03-19T10:43:55.738Z,6564.00
2019-03-19T10:44:55.606Z,7436.00
2019-03-19T10:45:55.475Z,7572.00
2019-03-19T10:46:55.344Z,7096.00
2019-03-19T10:47:55.212Z,6760.00
2019-03-19T10:48:55.085Z,6540.00
2019-03-19T10:49:54.952Z,4656.00
2019-03-19T10:50:54.823Z,4404.00
2019-03-19T10:51:54.692Z,4248.00
2019-03-19T10:52:54.561Z,4172.00
2019-03-19T10:53:54.433Z,4068.00
2019-03-19T10:54:54.302Z,3996.00
2019-03-19T10:55:54.172Z,3972.00
2019-03-19T10:56:54.046Z,4016.00
2019-03-19T10:57:53.909Z,4184.00
2019-03-19T10:58:53.780Z,4296.00
2019-03-19T10:59:53.653Z,4356.00
2019-03-19T11:00:53.521Z,4296.00
2019-03-19T11:01:53.391Z,4252.00
2019-03-19T11:02:53.262Z,4196.00
2019-03-19T11:03:53.130Z,4188.00
2019-03-19T11:04:53.001Z,4216.00
2019-03-19T11:05:52.868Z,4360.00
2019-03-19T11:06:52.739Z,4536.00
2019-03-19T11:07:52.607Z,4688.00
2019-03-19T11:08:52.478Z,4804.00
2019-03-19T11:09:52.347Z,5240.00
2019-03-19T11:10:52.214Z,5264.00
2019-03-19T11:11:52.084Z,5424.00
2019-03-19T11:12:51.950Z,5788.00
2019-03-19T11:13:51.824Z,6020.00
2019-03-19T11:14:51.695Z,6008.00
2019-03-19T11:15:51.560Z,6120.00
2019-03-19T11:16:51.441Z,6008.00
2019-03-19T11:17:51.294Z,6212.00
2019-03-19T11:18:51.162Z,7364.00
2019-03-19T11:19:51.034Z,7112.00
2019-03-19T11:20:50.901Z,6412.00
2019-03-19T11:21:50.823Z,6600.00
2019-03-19T11:22:50.646Z,7388.00
2019-03-19T11:23:50.509Z,7876.00
2019-03-19T11:24:50.381Z,7184.00
2019-03-19T11:25:54.475Z,6936.00
2019-03-19T11:26:50.114Z,7304.00
2019-03-19T11:27:49.983Z,6740.00
2019-03-19T11:28:49.853Z,6676.00
2019-03-19T11:29:59.517Z,6088.00
2019-03-19T11:30:49.591Z,5824.00
2019-03-19T11:31:49.461Z,5748.00
2019-03-19T11:32:49.333Z,5436.00
2019-03-19T11:33:49.201Z,5032.00
2019-03-19T11:34:49.071Z,5048.00
2019-03-19T11:35:48.941Z,5204.00
2019-03-19T11:36:57.528Z,5400.00
2019-03-19T11:37:48.682Z,5444.00
2019-03-19T11:38:48.546Z,5340.00
2019-03-19T11:39:48.414Z,5296.00
2019-03-19T11:40:48.285Z,5260.00
2019-03-19T11:41:48.156Z,5784.00
2019-03-19T11:42:48.023Z,5620.00
2019-03-19T11:43:47.893Z,5820.00
2019-03-19T11:44:47.763Z,5960.00
2019-03-19T11:45:47.631Z,6008.00
2019-03-19T11:46:47.514Z,5912.00
2019-03-19T11:47:47.367Z,5824.00
2019-03-19T11:48:47.246Z,5964.00
2019-03-19T11:49:47.111Z,5936.00
2019-03-19T11:50:46.979Z,5956.00
2019-03-19T11:51:46.847Z,6016.00
2019-03-19T11:52:46.717Z,6036.00
2019-03-19T11:53:46.587Z,5948.00
2019-03-19T11:54:46.455Z,5860.00
2019-03-19T11:55:46.323Z,5684.00
2019-03-19T11:56:46.197Z,5548.00
2019-03-19T11:57:46.064Z,5484.00
2019-03-19T11:58:45.937Z,5460.00
2019-03-19T11:59:45.805Z,5324.00
2019-03-19T12:00:45.672Z,5344.00
2019-03-19T12:01:45.541Z,5256.00
2019-03-19T12:02:45.412Z,5200.00
2019-03-19T12:03:45.290Z,5272.00
2019-03-19T12:04:45.149Z,5488.00
2019-03-19T12:05:45.021Z,5952.00
2019-03-19T12:06:44.888Z,6028.00
2019-03-19T12:07:44.756Z,7628.00
2019-03-19T12:08:44.626Z,5820.00
2019-03-19T12:09:44.498Z,5440.00
2019-03-19T12:10:44.370Z,5280.00
2019-03-19T12:11:44.235Z,5240.00
2019-03-19T12:12:44.106Z,5284.00
2019-03-19T12:13:43.972Z,5332.00
2019-03-19T12:14:43.844Z,5304.00
2019-03-19T12:15:43.713Z,5356.00
2019-03-19T12:16:43.584Z,5320.00
2019-03-19T12:17:43.465Z,5448.00
2019-03-19T12:18:43.319Z,5516.00
2019-03-19T12:19:43.189Z,5692.00
2019-03-19T12:20:43.061Z,5840.00
2019-03-19T12:21:42.930Z,5840.00
2019-03-19T12:22:42.803Z,5768.00
2019-03-19T12:23:42.666Z,5784.00
2019-03-19T12:24:42.537Z,5676.00
2019-03-19T12:25:42.405Z,5652.00
2019-03-19T12:26:42.276Z,5644.00
2019-03-19T12:27:42.147Z,5576.00
2019-03-19T12:28:42.018Z,5580.00
2019-03-19T12:29:41.910Z,5696.00
2019-03-19T12:30:41.753Z,5828.00
2019-03-19T12:31:41.628Z,5936.00
2019-03-19T12:32:41.493Z,6300.00
2019-03-19T12:33:41.694Z,6316.00
2019-03-19T12:34:41.231Z,6236.00
2019-03-19T12:35:41.102Z,6148.00
2019-03-19T12:36:40.972Z,6116.00
2019-03-19T12:37:40.841Z,5924.00
2019-03-19T12:38:40.717Z,6004.00
2019-03-19T12:39:40.586Z,6116.00
2019-03-19T12:40:40.468Z,6116.00
2019-03-19T12:41:40.327Z,5748.00
2019-03-19T12:42:40.199Z,5756.00
2019-03-19T12:43:40.065Z,5828.00
2019-03-19T12:44:39.963Z,5712.00
2019-03-19T12:45:39.798Z,5556.00
2019-03-19T12:46:39.668Z,5560.00
2019-03-19T12:47:39.541Z,5476.00
2019-03-19T12:48:39.408Z,5396.00
2019-03-19T12:49:39.277Z,5328.00
2019-03-19T12:50:39.148Z,5348.00
2019-03-19T12:51:39.019Z,5440.00
2019-03-19T12:52:38.887Z,5528.00
2019-03-19T12:53:38.764Z,5548.00
2019-03-19T12:54:38.630Z,5872.00
2019-03-19T12:55:38.495Z,6896.00
2019-03-19T12:56:38.395Z,6220.00
2019-03-19T12:57:38.238Z,5980.00
2019-03-19T12:58:38.108Z,6136.00
2019-03-19T12:59:37.979Z,6148.00
2019-03-19T13:00:37.847Z,5996.00
2019-03-19T13:01:37.833Z,5864.00